Time;durP1;ratioP1;P1;durP2;ratioP2;P2;SDS_P1;SDS_P2;PMS_P1;PMS_P2;Temp;Humidity;BMP_temperature;BMP_pressure;BME280_temperature;BME280_humidity;BME280_pressure;Samples;Min_cycle;Max_cycle;Signal;HPM_P1;HPM_P2
2023/05/05 00:00:32;;;;;;;384.17;357.57;;;16.10;4.90;;;;;;4993054;28;20195;-72
2023/05/05 00:02:57;;;;;;;298.67;277.83;;;16.00;4.80;;;;;;4992642;28;20248;-75
2023/05/05 00:05:24;;;;;;;382.23;358.20;;;16.00;4.80;;;;;;4992635;28;20181;-74
2023/05/05 00:07:49;;;;;;;414.17;385.00;;;16.00;4.90;;;;;;4992661;28;20223;-75
2023/05/05 00:10:15;;;;;;;267.60;248.63;;;16.00;4.80;;;;;;4992879;28;20979;-72
2023/05/05 00:12:41;;;;;;;352.77;329.17;;;15.90;5.00;;;;;;4992672;28;20184;-72
2023/05/05 00:15:07;;;;;;;413.97;382.57;;;15.90;5.10;;;;;;4992733;28;20211;-73
2023/05/05 00:17:32;;;;;;;335.53;312.10;;;15.90;5.20;;;;;;4992648;28;20208;-74
2023/05/05 00:19:58;;;;;;;357.47;334.10;;;15.80;5.50;;;;;;4992635;28;20439;-75
2023/05/05 00:22:24;;;;;;;418.63;389.13;;;15.80;5.60;;;;;;4992344;28;20232;-73
2023/05/05 00:24:50;;;;;;;337.57;315.87;;;15.70;6.00;;;;;;4991092;28;20192;-74
2023/05/05 00:27:15;;;;;;;367.17;344.40;;;15.60;6.10;;;;;;4992185;28;20983;-73
2023/05/05 00:29:41;;;;;;;358.00;335.47;;;15.60;6.50;;;;;;4992523;28;20184;-73
2023/05/05 00:32:06;;;;;;;372.40;349.03;;;15.50;6.80;;;;;;4992297;28;20613;-74
2023/05/05 00:34:32;;;;;;;355.63;334.37;;;15.50;7.00;;;;;;4992419;28;20177;-72
2023/05/05 00:36:57;;;;;;;357.03;333.57;;;15.40;7.40;;;;;;4992341;28;20643;-73
2023/05/05 00:39:23;;;;;;;427.10;400.40;;;15.40;7.70;;;;;;4992550;28;20180;-73
2023/05/05 00:41:48;;;;;;;321.20;301.83;;;15.40;7.80;;;;;;4992126;28;20187;-73
2023/05/05 00:44:14;;;;;;;333.50;313.77;;;15.30;8.20;;;;;;4992423;28;20184;-73
2023/05/05 00:46:41;;;;;;;283.10;265.50;;;15.30;8.30;;;;;;4992342;28;20298;-73
2023/05/05 00:49:08;;;;;;;334.33;313.70;;;15.20;8.40;;;;;;4992272;28;20179;-73
2023/05/05 00:51:33;;;;;;;379.03;356.60;;;15.20;8.80;;;;;;4991979;28;20470;-73
2023/05/05 00:54:00;;;;;;;405.00;380.73;;;15.20;8.80;;;;;;4991038;28;21073;-73
2023/05/05 00:56:26;;;;;;;345.80;323.40;;;15.10;8.70;;;;;;4992194;28;20204;-73
2023/05/05 00:58:52;;;;;;;413.53;385.90;;;15.10;8.90;;;;;;4992355;28;20418;-73
2023/05/05 01:01:17;;;;;;;398.90;371.53;;;15.10;9.20;;;;;;4992241;28;20412;-73
2023/05/05 01:03:43;;;;;;;388.17;362.13;;;15.10;9.50;;;;;;4991942;28;20894;-73
2023/05/05 01:06:25;;;;;;;307.80;290.83;;;15.10;9.80;;;;;;4992032;28;20207;-73
2023/05/05 01:09:31;;;;;;;403.50;376.17;;;15.10;10.00;;;;;;4992030;28;20184;-73
2023/05/05 01:12:09;;;;;;;330.70;308.83;;;15.20;10.10;;;;;;4952859;28;20502;-73
2023/05/05 01:14:38;;;;;;;296.27;278.13;;;15.20;10.20;;;;;;4991900;28;20921;-72
2023/05/05 01:17:17;;;;;;;373.63;347.90;;;15.10;10.00;;;;;;4992146;28;20423;-72
2023/05/05 01:20:09;;;;;;;426.20;396.37;;;15.10;10.30;;;;;;4991975;28;20415;-72
2023/05/05 01:22:40;;;;;;;340.87;318.33;;;15.10;10.30;;;;;;4991801;28;20429;-73
2023/05/05 01:25:36;;;;;;;206.97;192.73;;;15.10;10.50;;;;;;4991821;28;20425;-73
2023/05/05 01:28:15;;;;;;;198.13;182.80;;;15.00;10.80;;;;;;4991798;28;20439;-73
2023/05/05 01:31:05;;;;;;;216.33;199.13;;;15.00;11.60;;;;;;4991888;28;20869;-73
2023/05/05 01:33:36;;;;;;;328.90;305.87;;;14.90;12.10;;;;;;4991461;28;20418;-73
2023/05/05 01:36:08;;;;;;;251.63;233.00;;;14.90;12.40;;;;;;4991668;28;20478;-73
2023/05/05 01:38:39;;;;;;;390.87;361.87;;;14.80;13.00;;;;;;4992726;28;20406;-73
2023/05/05 01:41:16;;;;;;;230.93;215.37;;;14.80;12.90;;;;;;4995271;28;20487;-73
2023/05/05 01:43:44;;;;;;;221.03;203.57;;;14.80;12.80;;;;;;4995005;28;20423;-72
2023/05/05 01:46:11;;;;;;;401.27;375.57;;;14.80;13.00;;;;;;4995059;28;20467;-73
2023/05/05 01:48:38;;;;;;;438.13;410.10;;;14.70;12.90;;;;;;4995218;28;20457;-73
2023/05/05 01:51:05;;;;;;;195.20;180.83;;;14.70;12.90;;;;;;4995559;28;20494;-73
2023/05/05 01:53:33;;;;;;;248.17;229.57;;;14.60;13.50;;;;;;4996183;28;20482;-73
2023/05/05 01:55:59;;;;;;;356.93;335.77;;;14.60;13.80;;;;;;4995733;28;20483;-73
2023/05/05 01:58:27;;;;;;;370.70;350.20;;;14.70;13.70;;;;;;4995042;28;20474;-73
2023/05/05 02:00:55;;;;;;;272.97;252.77;;;14.60;14.10;;;;;;4995082;28;20447;-73
2023/05/05 02:03:23;;;;;;;282.87;263.00;;;14.60;14.20;;;;;;4994594;28;20422;-73
2023/05/05 02:05:50;;;;;;;305.90;288.23;;;14.60;14.40;;;;;;4994818;28;20438;-73
2023/05/05 02:08:17;;;;;;;277.47;257.70;;;14.60;14.70;;;;;;4994908;28;21024;-73
2023/05/05 02:10:44;;;;;;;268.63;250.13;;;14.60;15.30;;;;;;4994778;28;20411;-74
2023/05/05 02:13:11;;;;;;;266.83;249.27;;;14.50;15.90;;;;;;4994492;28;20473;-73
2023/05/05 02:15:38;;;;;;;294.17;272.53;;;14.50;15.70;;;;;;4994503;28;20466;-73
2023/05/05 02:18:05;;;;;;;317.13;296.43;;;14.40;15.60;;;;;;4994621;28;20418;-74
2023/05/05 02:20:31;;;;;;;450.43;418.27;;;14.40;15.70;;;;;;4994853;28;20422;-74
2023/05/05 02:22:57;;;;;;;176.13;162.80;;;14.40;16.00;;;;;;4994238;28;20414;-74
2023/05/05 02:25:31;;;;;;;314.20;293.00;;;14.40;16.00;;;;;;4994257;28;20431;-73
2023/05/05 02:27:59;;;;;;;160.40;147.53;;;14.30;16.30;;;;;;4994370;28;20437;-73
2023/05/05 02:30:28;;;;;;;251.20;232.80;;;14.30;16.30;;;;;;4994455;28;20835;-74
2023/05/05 02:32:59;;;;;;;320.10;297.43;;;14.30;16.40;;;;;;4993937;28;20842;-73
2023/05/05 02:35:30;;;;;;;361.80;335.77;;;14.20;16.80;;;;;;4994096;28;20460;-73
2023/05/05 02:38:01;;;;;;;226.20;209.30;;;14.10;16.90;;;;;;4994208;28;20405;-73
2023/05/05 02:40:29;;;;;;;321.17;302.03;;;14.00;17.90;;;;;;4994574;28;20488;-71
2023/05/05 02:42:57;;;;;;;234.53;219.03;;;13.80;18.20;;;;;;4994050;28;20426;-71
2023/05/05 02:45:25;;;;;;;298.63;278.90;;;13.80;18.80;;;;;;4994199;28;20795;-71
2023/05/05 02:47:51;;;;;;;318.33;299.27;;;13.70;19.50;;;;;;4994201;28;20421;-71
2023/05/05 02:50:16;;;;;;;451.90;424.80;;;13.60;20.50;;;;;;4993959;28;20479;-71
2023/05/05 02:52:42;;;;;;;278.33;259.67;;;13.50;20.30;;;;;;4994234;28;20198;-71
2023/05/05 02:55:09;;;;;;;179.50;166.10;;;13.60;20.30;;;;;;4993896;28;20216;-71
2023/05/05 02:57:47;;;;;;;332.83;309.80;;;13.60;20.90;;;;;;4993947;28;20428;-71
2023/05/05 03:00:20;;;;;;;315.30;296.63;;;13.60;20.80;;;;;;4993914;28;20421;-71
2023/05/05 03:02:51;;;;;;;156.27;143.23;;;13.60;20.80;;;;;;4993673;28;20418;-71
2023/05/05 03:05:21;;;;;;;361.63;341.30;;;13.60;21.00;;;;;;4993564;28;20421;-71
2023/05/05 03:07:59;;;;;;;143.77;130.87;;;13.60;20.80;;;;;;4994070;28;20818;-72
2023/05/05 03:10:29;;;;;;;306.00;286.73;;;13.50;21.80;;;;;;4993636;28;20893;-71
2023/05/05 03:12:58;;;;;;;349.97;329.67;;;13.40;22.00;;;;;;4993433;28;20412;-71
2023/05/05 03:15:36;;;;;;;347.57;328.57;;;13.30;22.50;;;;;;4993347;28;21068;-71
2023/05/05 03:18:02;;;;;;;298.70;280.83;;;13.20;23.30;;;;;;4993644;28;20450;-71
2023/05/05 03:20:29;;;;;;;254.80;237.97;;;13.20;24.00;;;;;;4993490;28;20417;-71
2023/05/05 03:22:54;;;;;;;414.80;390.03;;;13.20;24.00;;;;;;4993141;28;20409;-72
2023/05/05 03:25:20;;;;;;;384.67;363.70;;;13.30;23.40;;;;;;4993280;28;20775;-71
2023/05/05 03:27:45;;;;;;;247.27;230.60;;;13.40;23.50;;;;;;4993183;28;20197;-71
2023/05/05 03:30:11;;;;;;;296.77;278.77;;;13.40;23.60;;;;;;4993188;28;20184;-71
2023/05/05 03:32:37;;;;;;;200.93;186.50;;;13.40;23.70;;;;;;4992964;28;20678;-72
2023/05/05 03:35:03;;;;;;;231.47;215.00;;;13.40;23.50;;;;;;4993114;28;20978;-72
2023/05/05 03:37:28;;;;;;;428.43;402.37;;;13.50;23.40;;;;;;4993335;28;20670;-72
2023/05/05 03:39:54;;;;;;;405.00;383.77;;;13.50;22.90;;;;;;4993662;28;20182;-72
2023/05/05 03:42:19;;;;;;;270.10;253.87;;;13.40;23.20;;;;;;4993122;28;20202;-71
2023/05/05 03:44:45;;;;;;;254.97;236.27;;;13.40;23.50;;;;;;4993619;28;20177;-72
2023/05/05 03:47:10;;;;;;;275.40;254.73;;;13.40;23.50;;;;;;4993363;28;20212;-71
2023/05/05 03:49:36;;;;;;;342.53;321.97;;;13.30;23.80;;;;;;4993010;28;20379;-72
2023/05/05 03:52:02;;;;;;;230.77;215.23;;;13.30;23.80;;;;;;4992973;28;20595;-71
2023/05/05 03:54:28;;;;;;;170.57;157.67;;;13.30;23.90;;;;;;4993744;28;20855;-71
2023/05/05 03:56:54;;;;;;;257.40;240.50;;;13.30;24.40;;;;;;4993607;28;20268;-71
2023/05/05 03:59:20;;;;;;;253.47;237.03;;;13.20;24.30;;;;;;4992932;28;20180;-73
2023/05/05 04:01:47;;;;;;;299.70;282.67;;;13.20;24.40;;;;;;4992028;28;20435;-74
2023/05/05 04:04:13;;;;;;;239.07;223.50;;;13.20;24.50;;;;;;4992826;28;20192;-73
2023/05/05 04:06:38;;;;;;;333.17;309.07;;;13.30;24.30;;;;;;4992727;28;20439;-73
2023/05/05 04:09:04;;;;;;;245.23;230.03;;;13.40;23.80;;;;;;4992745;28;20747;-74
2023/05/05 04:11:30;;;;;;;220.53;206.13;;;13.50;23.60;;;;;;4992658;28;20553;-73
2023/05/05 04:13:56;;;;;;;285.93;269.03;;;13.60;23.40;;;;;;4992541;28;20415;-73
2023/05/05 04:16:21;;;;;;;232.00;216.90;;;13.80;22.20;;;;;;4992472;28;20219;-73
2023/05/05 04:18:47;;;;;;;176.27;162.90;;;13.90;21.40;;;;;;4992573;28;20699;-73
2023/05/05 04:21:12;;;;;;;199.63;185.80;;;13.90;21.00;;;;;;4992522;28;20248;-73
2023/05/05 04:23:38;;;;;;;144.63;132.57;;;14.00;21.10;;;;;;4992115;28;20313;-74
2023/05/05 04:26:03;;;;;;;246.25;230.70;;;14.10;21.20;;;;;;5008370;22;20219;-69
2023/05/05 04:28:29;;;;;;;259.07;242.40;;;14.20;21.20;;;;;;4991517;28;20234;-70
2023/05/05 04:30:55;;;;;;;357.33;334.13;;;14.30;20.60;;;;;;4992705;28;20268;-71
2023/05/05 04:33:20;;;;;;;186.83;172.97;;;14.30;20.00;;;;;;4992517;28;20263;-71
2023/05/05 04:35:46;;;;;;;217.40;202.70;;;14.40;20.30;;;;;;4992566;28;20294;-71
2023/05/05 04:38:11;;;;;;;229.87;215.30;;;14.50;19.40;;;;;;4992420;28;20642;-70
2023/05/05 04:40:39;;;;;;;190.53;175.33;;;14.60;19.10;;;;;;4992732;28;20183;-71
2023/05/05 04:43:05;;;;;;;329.73;310.70;;;14.60;18.90;;;;;;4992270;28;20515;-71
2023/05/05 04:45:31;;;;;;;346.37;325.23;;;14.70;18.90;;;;;;4992880;28;20415;-71
2023/05/05 04:47:56;;;;;;;209.77;194.77;;;14.80;18.80;;;;;;4992687;28;20810;-71
2023/05/05 04:50:22;;;;;;;224.27;206.73;;;14.90;18.50;;;;;;4991505;28;20187;-71
2023/05/05 04:52:48;;;;;;;379.20;357.20;;;14.90;17.80;;;;;;4992426;28;20179;-70
2023/05/05 04:55:13;;;;;;;265.43;246.03;;;14.90;17.70;;;;;;4991144;28;20208;-71
2023/05/05 04:57:39;;;;;;;250.77;232.60;;;15.00;17.50;;;;;;4992459;28;20196;-71
2023/05/05 05:00:06;;;;;;;172.20;158.93;;;15.00;17.50;;;;;;4992520;28;20177;-71
2023/05/05 05:02:32;;;;;;;274.47;254.73;;;15.10;17.60;;;;;;4992278;28;20191;-71
2023/05/05 05:04:57;;;;;;;369.00;344.73;;;15.10;17.60;;;;;;4991580;28;20932;-71
2023/05/05 05:07:23;;;;;;;262.70;245.77;;;15.30;17.70;;;;;;4992559;28;20283;-71
2023/05/05 05:09:49;;;;;;;352.53;330.73;;;15.40;17.80;;;;;;4991212;28;20207;-72
2023/05/05 05:12:14;;;;;;;468.00;435.90;;;15.50;17.80;;;;;;4991070;28;20175;-71
2023/05/05 05:14:40;;;;;;;351.33;327.27;;;15.60;17.10;;;;;;4995651;28;20234;-71
2023/05/05 05:17:05;;;;;;;287.93;266.47;;;15.70;16.50;;;;;;4996446;28;20197;-69
2023/05/05 05:19:31;;;;;;;370.43;342.93;;;15.70;16.30;;;;;;4997776;28;20259;-71
2023/05/05 05:21:57;;;;;;;348.13;326.40;;;15.70;16.30;;;;;;4997064;28;20708;-71
2023/05/05 05:24:23;;;;;;;405.33;379.87;;;15.80;16.50;;;;;;4997180;28;20177;-72
2023/05/05 05:26:49;;;;;;;349.40;326.97;;;15.90;16.40;;;;;;4995950;28;20216;-71
2023/05/05 05:29:19;;;;;;;365.13;343.70;;;16.00;15.80;;;;;;4996089;28;20427;-70
2023/05/05 05:31:44;;;;;;;253.47;236.33;;;16.10;15.40;;;;;;4997249;28;20931;-69
2023/05/05 05:34:10;;;;;;;312.67;288.17;;;16.30;14.70;;;;;;4994864;28;20498;-70
2023/05/05 05:36:36;;;;;;;326.37;303.63;;;16.50;14.10;;;;;;4995730;28;20209;-69
2023/05/05 05:39:02;;;;;;;334.07;309.40;;;16.70;14.30;;;;;;4995922;28;20420;-69
2023/05/05 05:41:27;;;;;;;391.30;366.73;;;16.80;14.00;;;;;;4994337;28;20709;-68
2023/05/05 05:43:53;;;;;;;150.53;138.63;;;17.00;13.90;;;;;;4990617;28;20177;-69
2023/05/05 05:46:18;;;;;;;441.57;412.33;;;17.30;13.40;;;;;;4987944;28;20259;-69
2023/05/05 05:48:44;;;;;;;357.30;334.57;;;17.70;12.40;;;;;;4991152;28;20548;-69
2023/05/05 05:51:09;;;;;;;338.83;316.60;;;17.90;11.30;;;;;;4995388;28;20639;-69
2023/05/05 05:53:35;;;;;;;392.80;363.63;;;18.20;10.10;;;;;;4989959;28;20209;-69
2023/05/05 05:56:00;;;;;;;339.97;314.20;;;18.40;9.90;;;;;;4982409;28;20303;-69
2023/05/05 05:58:26;;;;;;;658.87;604.97;;;18.70;9.60;;;;;;4995239;28;20706;-69
2023/05/05 06:00:51;;;;;;;536.47;495.67;;;19.10;7.00;;;;;;4995793;28;20791;-69
2023/05/05 06:03:17;;;;;;;416.30;385.17;;;19.30;6.60;;;;;;4995137;28;20657;-69
2023/05/05 06:05:45;;;;;;;505.60;464.60;;;21.20;4.70;;;;;;4990384;28;20606;-69
2023/05/05 06:08:11;;;;;;;564.07;518.80;;;23.30;1.10;;;;;;4975706;28;20251;-69
2023/05/05 06:10:40;;;;;;;671.23;616.63;;;23.70;1.00;;;;;;4976078;28;20515;-70
2023/05/05 06:13:06;;;;;;;784.73;712.37;;;24.30;1.00;;;;;;4974106;28;20662;-70
2023/05/05 06:15:32;;;;;;;567.90;522.33;;;25.20;1.00;;;;;;4974395;28;20558;-70
2023/05/05 06:17:57;;;;;;;539.07;497.30;;;25.50;1.00;;;;;;4981629;28;20818;-70
2023/05/05 06:20:23;;;;;;;713.33;649.03;;;25.00;1.00;;;;;;4995131;28;20320;-69
2023/05/05 06:22:48;;;;;;;830.50;753.43;;;24.40;1.00;;;;;;4994987;28;20180;-69
2023/05/05 06:25:14;;;;;;;539.53;497.13;;;23.80;1.00;;;;;;4994336;28;20177;-69
2023/05/05 06:27:39;;;;;;;492.13;457.57;;;23.50;1.00;;;;;;4994859;28;20218;-69
2023/05/05 06:30:06;;;;;;;776.47;708.40;;;23.30;1.00;;;;;;4989771;28;20181;-69
2023/05/05 06:32:31;;;;;;;430.27;401.30;;;23.10;1.00;;;;;;4982949;28;20601;-69
2023/05/05 06:34:57;;;;;;;534.27;491.40;;;23.30;1.00;;;;;;4982330;28;20491;-70
2023/05/05 06:37:22;;;;;;;563.83;516.87;;;23.50;1.00;;;;;;4975253;28;20201;-70
2023/05/05 06:39:48;;;;;;;566.13;521.10;;;23.50;1.00;;;;;;4975134;28;20181;-70
2023/05/05 06:42:13;;;;;;;607.23;561.70;;;23.30;1.00;;;;;;4978915;28;20602;-70
2023/05/05 06:44:39;;;;;;;501.23;461.30;;;22.90;1.00;;;;;;4994481;28;20251;-70
2023/05/05 06:47:05;;;;;;;538.10;498.90;;;22.80;1.00;;;;;;4990364;28;20228;-70
2023/05/05 06:49:30;;;;;;;406.67;377.27;;;22.90;1.00;;;;;;4989586;28;20191;-70
2023/05/05 06:51:56;;;;;;;618.10;566.37;;;23.10;1.00;;;;;;4988005;28;20236;-70
2023/05/05 06:54:21;;;;;;;556.43;509.33;;;23.90;1.00;;;;;;4991891;28;20185;-69
2023/05/05 06:56:47;;;;;;;712.80;652.53;;;24.90;1.00;;;;;;4989634;28;20212;-69
2023/05/05 06:59:12;;;;;;;566.57;521.63;;;25.20;1.00;;;;;;4979465;28;20219;-70
2023/05/05 07:01:38;;;;;;;574.83;530.00;;;25.40;1.00;;;;;;4983079;28;20225;-72
2023/05/05 07:04:05;;;;;;;669.73;615.20;;;25.60;1.00;;;;;;4971420;28;20181;-71
2023/05/05 07:06:30;;;;;;;582.53;543.90;;;26.00;1.00;;;;;;4972077;28;20246;-71
2023/05/05 07:08:56;;;;;;;681.10;628.67;;;26.00;1.00;;;;;;4982344;28;20440;-71
2023/05/05 07:11:22;;;;;;;819.33;744.93;;;25.60;1.00;;;;;;4971236;28;20925;-72
2023/05/05 07:13:48;;;;;;;808.83;737.03;;;24.90;1.00;;;;;;4969528;28;20189;-69
2023/05/05 07:16:13;;;;;;;623.20;575.37;;;24.20;1.00;;;;;;4971758;28;20237;-69
2023/05/05 07:18:39;;;;;;;631.37;585.10;;;23.50;1.00;;;;;;4977936;28;20188;-69
2023/05/05 07:21:05;;;;;;;679.73;621.67;;;23.10;1.00;;;;;;4989261;28;20561;-70
2023/05/05 07:23:31;;;;;;;664.23;612.90;;;22.60;1.00;;;;;;4990051;28;20196;-69
2023/05/05 07:25:57;;;;;;;501.60;465.73;;;22.70;1.00;;;;;;4989516;28;20451;-69
2023/05/05 07:28:23;;;;;;;571.23;534.03;;;22.70;1.00;;;;;;4983336;28;20548;-71
2023/05/05 07:30:48;;;;;;;570.60;532.97;;;22.40;1.00;;;;;;4988011;28;20435;-69
2023/05/05 07:33:14;;;;;;;487.30;453.37;;;22.30;1.00;;;;;;4989803;28;20188;-69
2023/05/05 07:35:40;;;;;;;765.07;702.77;;;22.20;1.00;;;;;;4990054;28;20319;-69
2023/05/05 07:38:05;;;;;;;608.80;564.23;;;22.20;1.00;;;;;;4989309;28;20521;-69
2023/05/05 07:40:32;;;;;;;342.77;321.23;;;22.10;1.00;;;;;;4989252;28;20267;-71
2023/05/05 07:42:58;;;;;;;550.73;504.87;;;22.10;1.00;;;;;;4988897;28;20189;-69
2023/05/05 07:45:24;;;;;;;507.20;471.23;;;22.00;1.00;;;;;;4989194;28;20443;-70
2023/05/05 07:47:49;;;;;;;647.27;597.23;;;21.50;1.00;;;;;;4990262;28;20601;-70
2023/05/05 07:50:15;;;;;;;485.90;450.87;;;21.40;1.10;;;;;;4978843;28;20251;-69
2023/05/05 07:52:40;;;;;;;471.77;436.77;;;21.10;1.70;;;;;;4968624;28;20197;-70
2023/05/05 07:55:06;;;;;;;807.70;738.40;;;20.70;2.40;;;;;;4969624;28;20298;-71
2023/05/05 07:57:32;;;;;;;553.00;510.37;;;20.90;2.30;;;;;;4971882;28;20706;-70
2023/05/05 07:59:57;;;;;;;733.23;669.87;;;21.00;2.40;;;;;;4969380;28;20208;-70
2023/05/05 08:02:23;;;;;;;454.73;421.03;;;21.00;2.60;;;;;;4970394;28;20189;-71
2023/05/05 08:04:48;;;;;;;527.33;492.03;;;20.90;2.60;;;;;;4970385;28;20189;-68
2023/05/05 08:07:14;;;;;;;490.30;459.93;;;20.70;2.50;;;;;;4978236;28;20250;-68
2023/05/05 08:09:40;;;;;;;708.90;648.80;;;20.50;3.30;;;;;;4989262;28;20231;-70
2023/05/05 08:12:06;;;;;;;429.37;397.57;;;20.30;3.40;;;;;;4987992;28;20636;-70
2023/05/05 08:14:32;;;;;;;477.13;440.33;;;20.10;3.70;;;;;;4989529;28;20423;-69
2023/05/05 08:16:57;;;;;;;412.83;386.10;;;19.90;4.30;;;;;;4986893;28;20252;-70
2023/05/05 08:19:23;;;;;;;463.70;434.17;;;19.70;7.40;;;;;;4969863;28;20204;-69
2023/05/05 08:21:49;;;;;;;454.93;428.10;;;19.30;9.60;;;;;;4969536;28;20649;-69
2023/05/05 08:24:14;;;;;;;554.37;520.50;;;18.90;11.80;;;;;;4970357;28;20491;-70
2023/05/05 08:26:43;;;;;;;461.40;431.73;;;18.40;15.50;;;;;;4968216;28;20243;-69
2023/05/05 08:29:09;;;;;;;585.43;546.10;;;18.00;18.40;;;;;;4970224;28;20240;-70
2023/05/05 08:31:38;;;;;;;417.83;390.70;;;17.70;20.70;;;;;;4989777;28;20448;-70
2023/05/05 08:34:05;;;;;;;424.40;397.97;;;17.50;23.50;;;;;;4989423;28;20500;-69
2023/05/05 08:36:31;;;;;;;454.47;425.20;;;17.20;25.40;;;;;;4987562;28;20877;-69
2023/05/05 08:38:58;;;;;;;431.13;402.90;;;16.90;27.40;;;;;;4978554;28;20507;-71
2023/05/05 08:41:25;;;;;;;474.27;443.90;;;16.90;28.40;;;;;;4969440;28;20516;-70
2023/05/05 08:43:51;;;;;;;295.57;278.07;;;16.80;29.50;;;;;;4968225;28;20432;-70
2023/05/05 08:46:16;;;;;;;390.93;366.97;;;16.70;30.80;;;;;;4969884;28;20452;-71
2023/05/05 08:48:43;;;;;;;326.10;306.10;;;16.70;31.60;;;;;;4979748;28;20474;-70
2023/05/05 08:51:15;;;;;;;475.10;444.60;;;16.80;31.90;;;;;;4992471;28;20441;-71
2023/05/05 08:53:52;;;;;;;278.27;261.30;;;16.90;31.50;;;;;;4986923;28;20433;-70
2023/05/05 08:56:24;;;;;;;363.20;341.47;;;17.10;31.10;;;;;;4977403;28;20471;-69
2023/05/05 08:58:50;;;;;;;360.53;338.80;;;17.40;30.70;;;;;;4977876;28;20800;-70
2023/05/05 09:01:16;;;;;;;473.33;442.53;;;17.60;29.60;;;;;;4988576;28;20439;-71
2023/05/05 09:03:45;;;;;;;409.80;383.47;;;17.90;28.50;;;;;;4995643;28;20180;-71
2023/05/05 09:06:12;;;;;;;382.53;358.33;;;18.20;27.90;;;;;;4986422;28;20772;-70
2023/05/05 09:08:38;;;;;;;287.13;268.47;;;18.50;26.20;;;;;;4977630;28;20436;-71
2023/05/05 09:11:04;;;;;;;412.83;385.17;;;18.70;25.80;;;;;;4976294;28;20429;-70
2023/05/05 09:13:30;;;;;;;493.20;461.13;;;19.10;24.60;;;;;;4988733;28;20470;-70
2023/05/05 09:15:59;;;;;;;401.20;375.03;;;19.50;23.70;;;;;;4988118;28;20545;-71
2023/05/05 09:18:25;;;;;;;429.67;397.63;;;19.90;22.00;;;;;;4992723;28;20191;-70
2023/05/05 09:20:51;;;;;;;492.20;458.50;;;20.50;20.00;;;;;;4991685;28;20501;-70
2023/05/05 09:23:19;;;;;;;484.33;448.77;;;20.90;17.20;;;;;;4992327;28;20435;-70
2023/05/05 09:26:03;;;;;;;481.50;449.77;;;21.40;16.70;;;;;;4979817;28;20205;-68
2023/05/05 09:28:29;;;;;;;406.30;379.90;;;21.60;13.80;;;;;;4975478;28;20455;-70
2023/05/05 09:30:54;;;;;;;465.33;434.37;;;22.00;13.40;;;;;;4985067;28;20424;-72
2023/05/05 09:33:30;;;;;;;410.87;380.80;;;22.20;12.00;;;;;;4995546;28;20180;-70
2023/05/05 09:35:56;;;;;;;492.50;454.07;;;22.20;12.30;;;;;;4994824;28;20294;-70
2023/05/05 09:38:23;;;;;;;497.97;461.40;;;22.10;11.50;;;;;;4994449;28;20451;-71
2023/05/05 09:40:52;;;;;;;527.80;491.27;;;22.30;11.60;;;;;;4995841;28;20416;-70
2023/05/05 09:43:20;;;;;;;598.00;553.57;;;22.30;10.80;;;;;;4985147;28;20412;-69
2023/05/05 09:45:47;;;;;;;476.50;447.43;;;22.60;10.60;;;;;;4976369;28;20416;-69
2023/05/05 09:48:23;;;;;;;460.60;431.77;;;22.50;9.70;;;;;;4976310;28;20535;-69
2023/05/05 09:50:49;;;;;;;564.00;518.30;;;22.50;10.60;;;;;;4974934;28;20428;-69
2023/05/05 09:53:15;;;;;;;422.00;395.27;;;22.30;9.50;;;;;;4976001;28;20426;-69
2023/05/05 09:55:50;;;;;;;538.80;498.03;;;22.00;9.70;;;;;;4975963;28;20215;-69
2023/05/05 09:58:22;;;;;;;478.80;445.07;;;22.00;9.00;;;;;;4974863;28;20205;-70
2023/05/05 10:00:48;;;;;;;351.83;332.90;;;21.90;8.90;;;;;;4975183;28;20421;-71
2023/05/05 10:03:13;;;;;;;409.70;379.33;;;22.00;9.00;;;;;;4974324;28;20855;-70
2023/05/05 10:05:51;;;;;;;438.57;404.87;;;22.00;8.30;;;;;;4975332;28;20225;-71
2023/05/05 10:08:19;;;;;;;623.50;573.87;;;22.10;8.20;;;;;;4999840;28;20615;-70
2023/05/05 10:10:59;;;;;;;636.37;585.87;;;22.60;7.60;;;;;;4994904;28;20452;-70
2023/05/05 10:13:25;;;;;;;566.70;526.60;;;23.20;4.60;;;;;;4981812;28;20451;-70
2023/05/05 10:15:53;;;;;;;521.93;483.83;;;23.60;4.70;;;;;;5001354;28;20941;-70
2023/05/05 10:18:26;;;;;;;489.87;457.33;;;24.20;4.20;;;;;;5005724;28;20924;-70
2023/05/05 10:21:02;;;;;;;672.77;618.40;;;24.40;2.40;;;;;;5006531;28;20431;-70
2023/05/05 10:23:52;;;;;;;570.20;529.57;;;24.80;1.00;;;;;;4994866;28;20977;-70
2023/05/05 10:28:55;;;;;;;768.47;704.40;;;25.30;1.00;;;;;;5034895;22;20906;-70
2023/05/05 10:31:36;;;;;;;699.33;640.43;;;25.40;1.00;;;;;;5012726;28;20418;-70
2023/05/05 10:34:04;;;;;;;760.47;698.13;;;25.60;1.00;;;;;;5014064;28;20498;-69
2023/05/05 10:36:30;;;;;;;700.17;644.33;;;25.90;1.00;;;;;;5012147;28;20470;-72
2023/05/05 10:38:57;;;;;;;673.43;623.60;;;26.10;1.00;;;;;;4994249;28;20448;-71
2023/05/05 10:41:23;;;;;;;717.30;667.17;;;26.40;1.00;;;;;;4994082;28;20416;-71
2023/05/05 10:43:50;;;;;;;721.33;660.33;;;26.00;1.00;;;;;;4994124;28;20475;-71
2023/05/05 10:46:16;;;;;;;606.27;562.80;;;26.50;1.00;;;;;;4994210;28;20503;-70
2023/05/05 10:48:55;;;;;;;601.23;557.97;;;27.00;1.00;;;;;;4992702;28;20447;-70
2023/05/05 10:51:31;;;;;;;804.37;734.87;;;27.00;1.00;;;;;;4992192;28;20481;-70
2023/05/05 10:54:21;;;;;;;685.40;633.87;;;27.20;1.00;;;;;;4994067;28;20564;-70
2023/05/05 10:56:48;;;;;;;786.60;720.63;;;27.20;1.00;;;;;;4992561;28;20474;-71
2023/05/05 10:59:38;;;;;;;898.73;821.70;;;27.00;1.00;;;;;;4994092;28;20451;-71
2023/05/05 11:02:22;;;;;;;765.63;703.10;;;26.40;1.00;;;;;;4993414;28;20458;-71
2023/05/05 11:05:11;;;;;;;772.17;709.17;;;26.50;1.00;;;;;;4993871;28;20416;-72
2023/05/05 11:07:36;;;;;;;782.70;717.90;;;26.20;1.00;;;;;;4993788;28;20798;-72
2023/05/05 11:10:06;;;;;;;802.43;734.53;;;26.20;1.00;;;;;;4994137;28;20500;-72
2023/05/05 11:12:52;;;;;;;710.70;651.93;;;26.60;1.00;;;;;;4992163;28;20614;-72
2023/05/05 11:15:27;;;;;;;842.83;768.03;;;26.60;1.00;;;;;;4993779;28;20451;-72
2023/05/05 11:17:54;;;;;;;653.00;602.07;;;26.50;1.00;;;;;;4992635;28;20454;-72
2023/05/05 11:20:42;;;;;;;679.73;630.17;;;26.60;1.00;;;;;;4994054;28;20731;-73
2023/05/05 11:23:07;;;;;;;709.70;653.67;;;27.00;1.00;;;;;;4993404;28;20412;-72
2023/05/05 11:25:36;;;;;;;852.87;776.63;;;27.00;1.00;;;;;;4993441;28;20578;-73
2023/05/05 11:28:15;;;;;;;764.00;703.00;;;26.80;1.00;;;;;;4993328;28;20546;-73
2023/05/05 11:30:53;;;;;;;671.60;619.83;;;26.60;1.00;;;;;;4992406;28;20467;-72
2023/05/05 11:33:29;;;;;;;774.13;709.60;;;26.60;1.00;;;;;;4993097;28;20415;-73
2023/05/05 11:35:55;;;;;;;897.43;809.30;;;26.60;1.00;;;;;;4993349;28;20454;-72
2023/05/05 11:38:45;;;;;;;754.37;697.80;;;26.70;1.00;;;;;;4992684;28;20504;-72
2023/05/05 11:41:17;;;;;;;881.63;802.47;;;26.70;1.00;;;;;;4986232;28;20452;-72
2023/05/05 11:43:42;;;;;;;796.43;729.87;;;26.40;1.00;;;;;;4992920;28;20416;-72
2023/05/05 11:46:15;;;;;;;733.50;677.27;;;26.10;1.00;;;;;;4983572;28;20428;-71
2023/05/05 11:48:45;;;;;;;723.00;667.67;;;25.80;1.00;;;;;;4989712;28;20205;-72
2023/05/05 11:51:17;;;;;;;764.27;705.13;;;25.90;1.00;;;;;;4992036;28;20933;-72
2023/05/05 11:53:48;;;;;;;776.60;715.17;;;25.90;1.00;;;;;;4990848;28;20457;-72
2023/05/05 11:56:21;;;;;;;794.60;727.27;;;25.60;1.00;;;;;;5003714;28;20833;-72
2023/05/05 11:59:07;;;;;;;798.23;729.53;;;25.60;1.00;;;;;;4992893;28;20920;-72
2023/05/05 12:01:33;;;;;;;543.20;506.80;;;25.70;1.00;;;;;;4972972;28;20413;-69
2023/05/05 12:03:58;;;;;;;695.87;644.90;;;25.60;1.00;;;;;;4973208;28;20969;-69
2023/05/05 12:06:25;;;;;;;792.33;727.47;;;25.70;1.00;;;;;;4973429;28;20182;-74
2023/05/05 12:08:51;;;;;;;793.57;730.60;;;25.60;1.00;;;;;;4973485;28;20657;-70
2023/05/05 12:11:17;;;;;;;914.50;824.27;;;25.40;1.00;;;;;;4982168;28;20415;-69
2023/05/05 12:13:43;;;;;;;703.63;651.07;;;25.50;1.00;;;;;;4992413;28;20204;-69
2023/05/05 12:16:09;;;;;;;766.37;703.07;;;25.70;1.00;;;;;;5001512;28;20938;-70
2023/05/05 12:18:34;;;;;;;896.13;810.90;;;25.90;1.00;;;;;;5012099;28;20242;-70
2023/05/05 12:21:00;;;;;;;811.20;742.80;;;26.10;1.00;;;;;;5012304;28;20406;-70